sensor_id;sensor_type;location;lat;lon;timestamp;pressure;altitude;pressure_sealevel;temperature;humidity
79250;BME280;68679;51.030;7.584;2024-01-06T14:30:29;98260.81;;;6.45;71.07
79250;BME280;68679;51.030;7.584;2024-01-06T14:32:54;98270.19;;;6.31;72.07
79250;BME280;68679;51.030;7.584;2024-01-06T14:35:19;98267.88;;;6.09;72.14
79250;BME280;68679;51.030;7.584;2024-01-06T14:37:44;98276.69;;;5.93;72.67
79250;BME280;68679;51.030;7.584;2024-01-06T14:40:11;98282.66;;;5.83;73.09
79250;BME280;68679;51.030;7.584;2024-01-06T14:42:37;98285.25;;;5.83;73.27
79250;BME280;68679;51.030;7.584;2024-01-06T14:45:02;98284.19;;;5.79;73.92
79250;BME280;68679;51.030;7.584;2024-01-06T14:47:28;98295.91;;;5.71;73.95
79250;BME280;68679;51.030;7.584;2024-01-06T14:49:53;98297.44;;;5.67;73.65
79250;BME280;68679;51.030;7.584;2024-01-06T14:52:18;98299.53;;;5.65;73.93
79250;BME280;68679;51.030;7.584;2024-01-06T14:54:44;98298.47;;;5.66;73.94
79250;BME280;68679;51.030;7.584;2024-01-06T14:57:09;98306.53;;;5.64;73.76
79250;BME280;68679;51.030;7.584;2024-01-06T14:59:34;98312.50;;;5.60;74.12
79250;BME280;68679;51.030;7.584;2024-01-06T15:02:02;98314.56;;;5.58;74.66
79250;BME280;68679;51.030;7.584;2024-01-06T15:04:27;98315.06;;;5.50;73.82
79250;BME280;68679;51.030;7.584;2024-01-06T15:06:54;98316.59;;;5.46;74.48
79250;BME280;68679;51.030;7.584;2024-01-06T15:09:19;98319.22;;;5.41;73.98
79250;BME280;68679;51.030;7.584;2024-01-06T15:11:45;98314.75;;;5.36;74.51
79250;BME280;68679;51.030;7.584;2024-01-06T15:14:11;98319.44;;;5.34;74.94
79250;BME280;68679;51.030;7.584;2024-01-06T15:16:36;98327.25;;;5.34;75.05
79250;BME280;68679;51.030;7.584;2024-01-06T15:19:02;98329.03;;;5.33;74.74
79250;BME280;68679;51.030;7.584;2024-01-06T15:21:27;98324.31;;;5.25;74.25
79250;BME280;68679;51.030;7.584;2024-01-06T15:23:55;98325.63;;;5.23;74.83
79250;BME280;68679;51.030;7.584;2024-01-06T15:26:21;98325.88;;;5.21;74.79
79250;BME280;68679;51.030;7.584;2024-01-06T15:28:47;98335.19;;;5.12;74.46
79250;BME280;68679;51.030;7.584;2024-01-06T15:31:12;98339.88;;;5.10;74.58
79250;BME280;68679;51.030;7.584;2024-01-06T15:33:37;98352.03;;;5.09;75.02
79250;BME280;68679;51.030;7.584;2024-01-06T15:36:07;98351.78;;;5.06;74.40
79250;BME280;68679;51.030;7.584;2024-01-06T15:38:32;98360.09;;;5.08;74.42
79250;BME280;68679;51.030;7.584;2024-01-06T15:40:57;98355.69;;;5.08;74.42
79250;BME280;68679;51.030;7.584;2024-01-06T15:43:23;98368.94;;;5.07;74.70
79250;BME280;68679;51.030;7.584;2024-01-06T15:45:48;98364.25;;;5.04;74.55
79250;BME280;68679;51.030;7.584;2024-01-06T15:48:13;98371.75;;;5.00;74.94
79250;BME280;68679;51.030;7.584;2024-01-06T15:50:39;98372.25;;;4.97;74.68
79250;BME280;68679;51.030;7.584;2024-01-06T15:53:04;98374.03;;;4.92;74.78
79250;BME280;68679;51.030;7.584;2024-01-06T15:55:29;98371.97;;;4.94;75.67
79250;BME280;68679;51.030;7.584;2024-01-06T15:57:55;98381.84;;;4.97;75.11
79250;BME280;68679;51.030;7.584;2024-01-06T16:00:20;98385.22;;;4.97;74.91
79250;BME280;68679;51.030;7.584;2024-01-06T16:02:46;98386.03;;;4.98;75.03
79250;BME280;68679;51.030;7.584;2024-01-06T16:05:12;98381.31;;;4.95;75.30
79250;BME280;68679;51.030;7.584;2024-01-06T16:07:38;98377.16;;;4.94;75.68
79250;BME280;68679;51.030;7.584;2024-01-06T16:10:04;98387.31;;;4.95;75.05
79250;BME280;68679;51.030;7.584;2024-01-06T16:12:29;98372.72;;;4.89;75.34
79250;BME280;68679;51.030;7.584;2024-01-06T16:14:56;98382.59;;;4.87;75.17
79250;BME280;68679;51.030;7.584;2024-01-06T16:17:21;98381.84;;;4.92;75.45
79250;BME280;68679;51.030;7.584;2024-01-06T16:19:47;98385.44;;;4.86;75.21
79250;BME280;68679;51.030;7.584;2024-01-06T16:22:12;98385.19;;;4.87;75.40
79250;BME280;68679;51.030;7.584;2024-01-06T16:24:37;98389.84;;;4.90;75.99
79250;BME280;68679;51.030;7.584;2024-01-06T16:27:03;98396.09;;;4.89;75.28
79250;BME280;68679;51.030;7.584;2024-01-06T16:29:28;98389.59;;;4.87;75.62
79250;BME280;68679;51.030;7.584;2024-01-06T16:31:53;98395.81;;;4.86;75.23
79250;BME280;68679;51.030;7.584;2024-01-06T16:34:19;98401.25;;;4.84;75.99
79250;BME280;68679;51.030;7.584;2024-01-06T16:36:44;98402.31;;;4.88;75.23
79250;BME280;68679;51.030;7.584;2024-01-06T16:39:09;98407.22;;;4.84;75.27
79250;BME280;68679;51.030;7.584;2024-01-06T16:41:37;98407.22;;;4.84;75.21
79250;BME280;68679;51.030;7.584;2024-01-06T16:44:03;98407.72;;;4.81;75.12
79250;BME280;68679;51.030;7.584;2024-01-06T16:46:28;98407.38;;;4.73;74.85
79250;BME280;68679;51.030;7.584;2024-01-06T16:48:53;98411.28;;;4.70;75.31
79250;BME280;68679;51.030;7.584;2024-01-06T16:51:19;98419.06;;;4.70;75.84
79250;BME280;68679;51.030;7.584;2024-01-06T16:53:44;98416.22;;;4.72;75.28
79250;BME280;68679;51.030;7.584;2024-01-06T16:56:09;98412.59;;;4.73;75.32
79250;BME280;68679;51.030;7.584;2024-01-06T16:58:35;98418.28;;;4.70;75.18
79250;BME280;68679;51.030;7.584;2024-01-06T17:01:00;98424.78;;;4.67;75.12
79250;BME280;68679;51.030;7.584;2024-01-06T17:03:25;98427.13;;;4.69;75.57
79250;BME280;68679;51.030;7.584;2024-01-06T17:05:50;98433.09;;;4.69;76.06
79250;BME280;68679;51.030;7.584;2024-01-06T17:08:17;98433.53;;;4.61;75.35
79250;BME280;68679;51.030;7.584;2024-01-06T17:10:42;98433.53;;;4.61;74.76
79250;BME280;68679;51.030;7.584;2024-01-06T17:13:07;98437.06;;;4.50;75.28
79250;BME280;68679;51.030;7.584;2024-01-06T17:15:33;98440.50;;;4.55;75.71
79250;BME280;68679;51.030;7.584;2024-01-06T17:17:58;98444.41;;;4.58;75.28
79250;BME280;68679;51.030;7.584;2024-01-06T17:20:24;98447.31;;;4.62;75.46
79250;BME280;68679;51.030;7.584;2024-01-06T17:22:50;98447.53;;;4.60;75.75
79250;BME280;68679;51.030;7.584;2024-01-06T17:25:15;98456.91;;;4.61;75.14
79250;BME280;68679;51.030;7.584;2024-01-06T17:27:41;98452.97;;;4.58;75.32
79250;BME280;68679;51.030;7.584;2024-01-06T17:30:07;98450.06;;;4.55;75.49
79250;BME280;68679;51.030;7.584;2024-01-06T17:32:35;98454.50;;;4.54;75.16
79250;BME280;68679;51.030;7.584;2024-01-06T17:35:01;98452.16;;;4.53;75.37
79250;BME280;68679;51.030;7.584;2024-01-06T17:37:26;98460.47;;;4.55;75.06
79250;BME280;68679;51.030;7.584;2024-01-06T17:39:51;98454.50;;;4.54;75.47
79250;BME280;68679;51.030;7.584;2024-01-06T17:42:17;98458.91;;;4.54;75.69
79250;BME280;68679;51.030;7.584;2024-01-06T17:44:42;98464.34;;;4.52;75.22
79250;BME280;68679;51.030;7.584;2024-01-06T17:47:10;98471.34;;;4.52;75.93
79250;BME280;68679;51.030;7.584;2024-01-06T17:49:36;98477.31;;;4.52;75.01
79250;BME280;68679;51.030;7.584;2024-01-06T17:52:02;98477.00;;;4.49;75.39
79250;BME280;68679;51.030;7.584;2024-01-06T17:54:27;98475.97;;;4.45;75.09
79250;BME280;68679;51.030;7.584;2024-01-06T17:56:52;98482.19;;;4.44;75.47
79250;BME280;68679;51.030;7.584;2024-01-06T17:59:18;98482.41;;;4.42;75.11
79250;BME280;68679;51.030;7.584;2024-01-06T18:01:43;98488.34;;;4.38;74.95
79250;BME280;68679;51.030;7.584;2024-01-06T18:04:09;98495.75;;;4.29;74.88
79250;BME280;68679;51.030;7.584;2024-01-06T18:06:34;98490.28;;;4.25;75.20
79250;BME280;68679;51.030;7.584;2024-01-06T18:08:59;98492.31;;;4.23;75.12
79250;BME280;68679;51.030;7.584;2024-01-06T18:11:26;98501.41;;;4.21;75.16
79250;BME280;68679;51.030;7.584;2024-01-06T18:13:51;98500.03;;;4.18;75.34
79250;BME280;68679;51.030;7.584;2024-01-06T18:16:16;98512.56;;;4.21;75.14
79250;BME280;68679;51.030;7.584;2024-01-06T18:18:41;98501.94;;;4.23;76.12
79250;BME280;68679;51.030;7.584;2024-01-06T18:21:07;98505.56;;;4.22;75.25
79250;BME280;68679;51.030;7.584;2024-01-06T18:23:34;98511.47;;;4.17;75.07
79250;BME280;68679;51.030;7.584;2024-01-06T18:25:59;98514.84;;;4.18;76.08
79250;BME280;68679;51.030;7.584;2024-01-06T18:28:24;98509.88;;;4.16;75.56
79250;BME280;68679;51.030;7.584;2024-01-06T18:30:50;98516.91;;;4.16;74.71
79250;BME280;68679;51.030;7.584;2024-01-06T18:33:18;98523.91;;;4.15;74.82
79250;BME280;68679;51.030;7.584;2024-01-06T18:35:43;98520.53;;;4.15;74.82
79250;BME280;68679;51.030;7.584;2024-01-06T18:38:08;98523.91;;;4.15;75.08
79250;BME280;68679;51.030;7.584;2024-01-06T18:40:33;98521.06;;;4.17;75.71
79250;BME280;68679;51.030;7.584;2024-01-06T18:43:00;98526.56;;;4.20;75.14
79250;BME280;68679;51.030;7.584;2024-01-06T18:45:25;98522.63;;;4.18;75.19
79250;BME280;68679;51.030;7.584;2024-01-06T18:47:51;98531.75;;;4.20;75.04
79250;BME280;68679;51.030;7.584;2024-01-06T18:50:16;98534.03;;;4.17;74.89
79250;BME280;68679;51.030;7.584;2024-01-06T18:52:44;98528.56;;;4.13;75.09
79250;BME280;68679;51.030;7.584;2024-01-06T18:55:11;98536.34;;;4.13;75.39
79250;BME280;68679;51.030;7.584;2024-01-06T18:57:36;98532.66;;;4.09;74.59
79250;BME280;68679;51.030;7.584;2024-01-06T19:00:02;98526.13;;;4.07;75.27
79250;BME280;68679;51.030;7.584;2024-01-06T19:02:29;98530.84;;;4.10;75.73
79250;BME280;68679;51.030;7.584;2024-01-06T19:04:54;98534.13;;;4.05;75.70
79250;BME280;68679;51.030;7.584;2024-01-06T19:07:21;98537.31;;;4.07;75.39
79250;BME280;68679;51.030;7.584;2024-01-06T19:09:46;98541.13;;;4.04;75.07
79250;BME280;68679;51.030;7.584;2024-01-06T19:12:11;98537.47;;;4.00;75.41
79250;BME280;68679;51.030;7.584;2024-01-06T19:14:37;98542.94;;;4.04;74.98
79250;BME280;68679;51.030;7.584;2024-01-06T19:17:03;98543.72;;;4.04;74.89
79250;BME280;68679;51.030;7.584;2024-01-06T19:19:28;98543.44;;;4.01;75.18
79250;BME280;68679;51.030;7.584;2024-01-06T19:21:53;98543.44;;;4.01;75.25
79250;BME280;68679;51.030;7.584;2024-01-06T19:24:19;98548.75;;;3.89;74.88
79250;BME280;68679;51.030;7.584;2024-01-06T19:26:44;98552.22;;;3.78;75.15
79250;BME280;68679;51.030;7.584;2024-01-06T19:29:09;98549.44;;;3.85;75.24
79250;BME280;68679;51.030;7.584;2024-01-06T19:31:35;98556.53;;;3.89;74.88
79250;BME280;68679;51.030;7.584;2024-01-06T19:34:00;98549.53;;;3.90;75.15
79250;BME280;68679;51.030;7.584;2024-01-06T19:36:26;98552.56;;;3.87;75.18
79250;BME280;68679;51.030;7.584;2024-01-06T19:38:51;98553.34;;;3.87;74.92
79250;BME280;68679;51.030;7.584;2024-01-06T19:41:16;98562.88;;;3.82;74.69
79250;BME280;68679;51.030;7.584;2024-01-06T19:43:41;98563.03;;;3.75;74.80
79250;BME280;68679;51.030;7.584;2024-01-06T19:46:10;98561.88;;;3.83;75.03
79250;BME280;68679;51.030;7.584;2024-01-06T19:48:35;98569.16;;;3.86;75.20
79250;BME280;68679;51.030;7.584;2024-01-06T19:51:00;98563.50;;;3.89;75.32
79250;BME280;68679;51.030;7.584;2024-01-06T19:53:26;98567.88;;;3.88;75.02
79250;BME280;68679;51.030;7.584;2024-01-06T19:55:51;98571.22;;;3.84;75.29
79250;BME280;68679;51.030;7.584;2024-01-06T19:58:16;98582.53;;;3.78;75.48
79250;BME280;68679;51.030;7.584;2024-01-06T20:00:41;98583.06;;;3.80;75.31
79250;BME280;68679;51.030;7.584;2024-01-06T20:03:07;98586.22;;;3.82;75.36
79250;BME280;68679;51.030;7.584;2024-01-06T20:05:32;98594.22;;;3.80;75.61
79250;BME280;68679;51.030;7.584;2024-01-06T20:07:57;98587.41;;;3.74;75.30
79250;BME280;68679;51.030;7.584;2024-01-06T20:10:23;98594.41;;;3.73;75.17
79250;BME280;68679;51.030;7.584;2024-01-06T20:12:48;98591.88;;;3.79;75.70
79250;BME280;68679;51.030;7.584;2024-01-06T20:15:13;98586.47;;;3.80;75.32
79250;BME280;68679;51.030;7.584;2024-01-06T20:17:39;98586.22;;;3.82;76.13
79250;BME280;68679;51.030;7.584;2024-01-06T20:20:04;98591.56;;;3.75;75.04
79250;BME280;68679;51.030;7.584;2024-01-06T20:22:31;98587.94;;;3.76;75.50
79250;BME280;68679;51.030;7.584;2024-01-06T20:24:56;98593.38;;;3.74;75.06
79250;BME280;68679;51.030;7.584;2024-01-06T20:27:21;98595.66;;;3.71;75.57
79250;BME280;68679;51.030;7.584;2024-01-06T20:29:47;98597.78;;;3.74;75.15
79250;BME280;68679;51.030;7.584;2024-01-06T20:32:13;98596.75;;;3.75;75.63
79250;BME280;68679;51.030;7.584;2024-01-06T20:34:39;98598.31;;;3.76;75.64
79250;BME280;68679;51.030;7.584;2024-01-06T20:37:04;98594.16;;;3.75;75.70
79250;BME280;68679;51.030;7.584;2024-01-06T20:39:29;98599.81;;;3.72;75.39
79250;BME280;68679;51.030;7.584;2024-01-06T20:41:55;98595.66;;;3.71;75.40
79250;BME280;68679;51.030;7.584;2024-01-06T20:44:20;98603.91;;;3.68;75.42
79250;BME280;68679;51.030;7.584;2024-01-06T20:46:45;98601.63;;;3.71;75.45
79250;BME280;68679;51.030;7.584;2024-01-06T20:49:13;98595.66;;;3.71;76.15
79250;BME280;68679;51.030;7.584;2024-01-06T20:51:39;98603.66;;;3.69;75.22
79250;BME280;68679;51.030;7.584;2024-01-06T20:54:04;98603.13;;;3.67;75.72
79250;BME280;68679;51.030;7.584;2024-01-06T20:56:30;98611.53;;;3.74;75.62
79250;BME280;68679;51.030;7.584;2024-01-06T20:58:55;98606.34;;;3.74;75.29
79250;BME280;68679;51.030;7.584;2024-01-06T21:01:21;98609.72;;;3.75;76.09
79250;BME280;68679;51.030;7.584;2024-01-06T21:03:46;98607.59;;;3.72;75.67
79250;BME280;68679;51.030;7.584;2024-01-06T21:06:14;98607.53;;;3.67;75.42
79250;BME280;68679;51.030;7.584;2024-01-06T21:08:39;98607.97;;;3.64;75.11
79250;BME280;68679;51.030;7.584;2024-01-06T21:11:07;98608.56;;;3.66;75.92
79250;BME280;68679;51.030;7.584;2024-01-06T21:13:32;98611.16;;;3.66;75.54
79250;BME280;68679;51.030;7.584;2024-01-06T21:15:57;98603.38;;;3.66;75.38
79250;BME280;68679;51.030;7.584;2024-01-06T21:18:23;98609.34;;;3.66;75.39
79250;BME280;68679;51.030;7.584;2024-01-06T21:20:48;98612.72;;;3.67;75.97
79250;BME280;68679;51.030;7.584;2024-01-06T21:23:13;98615.06;;;3.68;75.42
79250;BME280;68679;51.030;7.584;2024-01-06T21:25:38;98608.84;;;3.69;75.55
79250;BME280;68679;51.030;7.584;2024-01-06T21:28:04;98610.44;;;3.70;75.86
79250;BME280;68679;51.030;7.584;2024-01-06T21:30:30;98617.66;;;3.68;75.29
79250;BME280;68679;51.030;7.584;2024-01-06T21:32:56;98613.16;;;3.64;74.93
79250;BME280;68679;51.030;7.584;2024-01-06T21:35:29;98614.97;;;3.63;76.64
79250;BME280;68679;51.030;7.584;2024-01-06T21:37:58;98612.47;;;3.68;75.74
79250;BME280;68679;51.030;7.584;2024-01-06T21:40:24;98607.28;;;3.68;76.06
79250;BME280;68679;51.030;7.584;2024-01-06T21:42:51;98609.56;;;3.65;75.95
79250;BME280;68679;51.030;7.584;2024-01-06T21:45:17;98616.34;;;3.66;75.29
79250;BME280;68679;51.030;7.584;2024-01-06T21:47:43;98613.16;;;3.64;75.37
79250;BME280;68679;51.030;7.584;2024-01-06T21:50:10;98619.88;;;3.60;75.92
79250;BME280;68679;51.030;7.584;2024-01-06T21:52:36;98621.44;;;3.61;76.23
79250;BME280;68679;51.030;7.584;2024-01-06T21:55:01;98617.03;;;3.61;75.73
79250;BME280;68679;51.030;7.584;2024-01-06T21:57:27;98617.50;;;3.58;75.25
79250;BME280;68679;51.030;7.584;2024-01-06T21:59:52;98616.66;;;3.53;75.47
79250;BME280;68679;51.030;7.584;2024-01-06T22:02:17;98621.09;;;3.57;75.69
79250;BME280;68679;51.030;7.584;2024-01-06T22:04:42;98623.41;;;3.54;75.75
79250;BME280;68679;51.030;7.584;2024-01-06T22:07:08;98620.31;;;3.57;75.93
79250;BME280;68679;51.030;7.584;2024-01-06T22:09:33;98619.78;;;3.55;75.75
79250;BME280;68679;51.030;7.584;2024-01-06T22:11:58;98628.66;;;3.59;76.13
79250;BME280;68679;51.030;7.584;2024-01-06T22:14:23;98631.31;;;3.64;75.98
79250;BME280;68679;51.030;7.584;2024-01-06T22:16:49;98638.88;;;3.65;76.55
79250;BME280;68679;51.030;7.584;2024-01-06T22:19:14;98642.16;;;3.61;75.39
79250;BME280;68679;51.030;7.584;2024-01-06T22:21:43;98640.84;;;3.58;75.45
79250;BME280;68679;51.030;7.584;2024-01-06T22:24:09;98639.81;;;3.59;76.00
79250;BME280;68679;51.030;7.584;2024-01-06T22:26:35;98640.59;;;3.60;75.46
79250;BME280;68679;51.030;7.584;2024-01-06T22:29:01;98637.91;;;3.55;75.65
79250;BME280;68679;51.030;7.584;2024-01-06T22:31:26;98645.38;;;3.51;75.28
79250;BME280;68679;51.030;7.584;2024-01-06T22:33:52;98642.78;;;3.51;76.13
79250;BME280;68679;51.030;7.584;2024-01-06T22:36:17;98645.38;;;3.51;75.82
79250;BME280;68679;51.030;7.584;2024-01-06T22:38:43;98647.97;;;3.51;75.87
79250;BME280;68679;51.030;7.584;2024-01-06T22:41:08;98649.84;;;3.56;75.79
79250;BME280;68679;51.030;7.584;2024-01-06T22:43:36;98642.88;;;3.56;75.79
79250;BME280;68679;51.030;7.584;2024-01-06T22:46:01;98652.06;;;3.47;75.47
79250;BME280;68679;51.030;7.584;2024-01-06T22:48:26;98648.19;;;3.49;75.81
79250;BME280;68679;51.030;7.584;2024-01-06T22:50:52;98656.31;;;3.53;75.86
79250;BME280;68679;51.030;7.584;2024-01-06T22:53:17;98655.28;;;3.54;76.26
79250;BME280;68679;51.030;7.584;2024-01-06T22:55:42;98647.19;;;3.50;75.77
79250;BME280;68679;51.030;7.584;2024-01-06T22:58:08;98652.06;;;3.47;75.54
79250;BME280;68679;51.030;7.584;2024-01-06T23:00:33;98650.25;;;3.47;76.04
79250;BME280;68679;51.030;7.584;2024-01-06T23:03:02;98652.59;;;3.49;76.10
79250;BME280;68679;51.030;7.584;2024-01-06T23:05:31;98654.16;;;3.50;75.77
79250;BME280;68679;51.030;7.584;2024-01-06T23:07:56;98652.16;;;3.52;75.78
79250;BME280;68679;51.030;7.584;2024-01-06T23:10:21;98656.53;;;3.52;75.76
79250;BME280;68679;51.030;7.584;2024-01-06T23:12:47;98655.72;;;3.51;75.95
79250;BME280;68679;51.030;7.584;2024-01-06T23:15:13;98653.94;;;3.52;76.02
79250;BME280;68679;51.030;7.584;2024-01-06T23:17:38;98660.13;;;3.50;75.34
79250;BME280;68679;51.030;7.584;2024-01-06T23:20:03;98655.97;;;3.49;75.85
79250;BME280;68679;51.030;7.584;2024-01-06T23:22:29;98670.19;;;3.47;76.06
79250;BME280;68679;51.030;7.584;2024-01-06T23:24:54;98660.84;;;3.46;76.02
79250;BME280;68679;51.030;7.584;2024-01-06T23:27:20;98663.91;;;3.43;75.75
79250;BME280;68679;51.030;7.584;2024-01-06T23:29:46;98669.78;;;3.38;75.67
79250;BME280;68679;51.030;7.584;2024-01-06T23:32:11;98670.56;;;3.39;75.94
79250;BME280;68679;51.030;7.584;2024-01-06T23:34:36;98675.84;;;3.44;76.25
79250;BME280;68679;51.030;7.584;2024-01-06T23:37:02;98676.63;;;3.44;76.23
79250;BME280;68679;51.030;7.584;2024-01-06T23:39:28;98679.13;;;3.39;76.13
79250;BME280;68679;51.030;7.584;2024-01-06T23:41:53;98678.56;;;3.37;75.56
79250;BME280;68679;51.030;7.584;2024-01-06T23:44:18;98681.16;;;3.37;75.72
79250;BME280;68679;51.030;7.584;2024-01-06T23:46:44;98688.69;;;3.39;76.17
79250;BME280;68679;51.030;7.584;2024-01-06T23:49:12;98681.50;;;3.41;75.91
79250;BME280;68679;51.030;7.584;2024-01-06T23:51:38;98681.25;;;3.42;76.04
79250;BME280;68679;51.030;7.584;2024-01-06T23:54:03;98692.66;;;3.41;76.02
79250;BME280;68679;51.030;7.584;2024-01-06T23:56:29;98688.69;;;3.39;75.63
79250;BME280;68679;51.030;7.584;2024-01-06T23:58:55;98692.31;;;3.38;75.84
